sensor_id;sensor_type;location;lat;lon;timestamp;P1;durP1;ratioP1;P2;durP2;ratioP2
53931;SDS011;39844;52.496;13.482;2023-07-31T00:02:13;1.70;;;1.00;;
53931;SDS011;39844;52.496;13.482;2023-07-31T00:04:38;1.50;;;1.10;;
53931;SDS011;39844;52.496;13.482;2023-07-31T00:07:04;1.50;;;1.00;;
53931;SDS011;39844;52.496;13.482;2023-07-31T00:09:29;1.33;;;1.00;;
53931;SDS011;39844;52.496;13.482;2023-07-31T00:11:57;0.80;;;0.80;;
53931;SDS011;39844;52.496;13.482;2023-07-31T00:14:23;1.10;;;1.00;;
53931;SDS011;39844;52.496;13.482;2023-07-31T00:16:50;1.00;;;0.90;;
53931;SDS011;39844;52.496;13.482;2023-07-31T00:19:19;0.90;;;0.90;;
53931;SDS011;39844;52.496;13.482;2023-07-31T00:21:50;1.63;;;1.10;;
53931;SDS011;39844;52.496;13.482;2023-07-31T00:24:15;1.83;;;1.00;;
53931;SDS011;39844;52.496;13.482;2023-07-31T00:29:35;1.23;;;0.80;;
53931;SDS011;39844;52.496;13.482;2023-07-31T00:32:02;0.90;;;0.90;;
53931;SDS011;39844;52.496;13.482;2023-07-31T00:34:33;0.90;;;0.90;;
53931;SDS011;39844;52.496;13.482;2023-07-31T00:37:01;0.93;;;0.90;;
53931;SDS011;39844;52.496;13.482;2023-07-31T00:39:30;1.87;;;0.90;;
53931;SDS011;39844;52.496;13.482;2023-07-31T00:41:56;0.97;;;0.83;;
53931;SDS011;39844;52.496;13.482;2023-07-31T00:44:24;0.90;;;0.90;;
53931;SDS011;39844;52.496;13.482;2023-07-31T00:46:55;1.20;;;1.10;;
53931;SDS011;39844;52.496;13.482;2023-07-31T00:49:21;2.10;;;0.97;;
53931;SDS011;39844;52.496;13.482;2023-07-31T00:51:47;1.37;;;1.17;;
53931;SDS011;39844;52.496;13.482;2023-07-31T00:54:13;1.07;;;1.00;;
53931;SDS011;39844;52.496;13.482;2023-07-31T00:56:39;2.03;;;1.10;;
53931;SDS011;39844;52.496;13.482;2023-07-31T00:59:11;1.20;;;1.10;;
53931;SDS011;39844;52.496;13.482;2023-07-31T01:01:37;1.07;;;0.90;;
53931;SDS011;39844;52.496;13.482;2023-07-31T01:04:03;2.07;;;1.00;;
53931;SDS011;39844;52.496;13.482;2023-07-31T01:12:06;1.90;;;1.07;;
53931;SDS011;39844;52.496;13.482;2023-07-31T01:14:34;2.30;;;1.20;;
53931;SDS011;39844;52.496;13.482;2023-07-31T01:17:00;1.30;;;1.20;;
53931;SDS011;39844;52.496;13.482;2023-07-31T01:19:26;1.17;;;1.07;;
53931;SDS011;39844;52.496;13.482;2023-07-31T01:24:47;2.63;;;1.30;;
53931;SDS011;39844;52.496;13.482;2023-07-31T01:27:24;1.90;;;1.23;;
53931;SDS011;39844;52.496;13.482;2023-07-31T01:30:00;2.63;;;1.00;;
53931;SDS011;39844;52.496;13.482;2023-07-31T01:32:33;1.60;;;1.10;;
53931;SDS011;39844;52.496;13.482;2023-07-31T01:34:59;1.33;;;1.30;;
53931;SDS011;39844;52.496;13.482;2023-07-31T01:37:28;1.43;;;1.00;;
53931;SDS011;39844;52.496;13.482;2023-07-31T01:39:54;4.20;;;1.40;;
53931;SDS011;39844;52.496;13.482;2023-07-31T01:42:19;1.40;;;1.17;;
53931;SDS011;39844;52.496;13.482;2023-07-31T01:44:44;1.17;;;1.10;;
53931;SDS011;39844;52.496;13.482;2023-07-31T01:47:10;1.70;;;1.07;;
53931;SDS011;39844;52.496;13.482;2023-07-31T01:49:35;1.10;;;1.07;;
53931;SDS011;39844;52.496;13.482;2023-07-31T01:52:00;1.70;;;1.40;;
53931;SDS011;39844;52.496;13.482;2023-07-31T01:54:25;1.20;;;1.20;;
53931;SDS011;39844;52.496;13.482;2023-07-31T01:56:51;1.23;;;1.10;;
53931;SDS011;39844;52.496;13.482;2023-07-31T01:59:16;1.23;;;1.13;;
53931;SDS011;39844;52.496;13.482;2023-07-31T02:01:41;1.40;;;1.30;;
53931;SDS011;39844;52.496;13.482;2023-07-31T02:04:07;1.20;;;1.20;;
53931;SDS011;39844;52.496;13.482;2023-07-31T02:06:32;1.00;;;1.00;;
53931;SDS011;39844;52.496;13.482;2023-07-31T02:08:57;1.23;;;1.13;;
53931;SDS011;39844;52.496;13.482;2023-07-31T02:11:22;1.73;;;1.13;;
53931;SDS011;39844;52.496;13.482;2023-07-31T02:13:48;1.10;;;1.10;;
53931;SDS011;39844;52.496;13.482;2023-07-31T02:16:13;1.30;;;1.20;;
53931;SDS011;39844;52.496;13.482;2023-07-31T02:18:38;1.30;;;1.20;;
53931;SDS011;39844;52.496;13.482;2023-07-31T02:21:04;1.10;;;1.10;;
53931;SDS011;39844;52.496;13.482;2023-07-31T02:23:29;1.77;;;1.07;;
53931;SDS011;39844;52.496;13.482;2023-07-31T02:25:54;1.73;;;1.20;;
53931;SDS011;39844;52.496;13.482;2023-07-31T02:28:22;1.53;;;1.40;;
53931;SDS011;39844;52.496;13.482;2023-07-31T02:30:47;1.40;;;1.30;;
53931;SDS011;39844;52.496;13.482;2023-07-31T02:33:14;1.40;;;1.30;;
53931;SDS011;39844;52.496;13.482;2023-07-31T02:35:42;1.20;;;1.20;;
53931;SDS011;39844;52.496;13.482;2023-07-31T02:38:07;2.30;;;1.20;;
53931;SDS011;39844;52.496;13.482;2023-07-31T02:40:33;1.37;;;1.27;;
53931;SDS011;39844;52.496;13.482;2023-07-31T02:42:58;1.30;;;1.20;;
53931;SDS011;39844;52.496;13.482;2023-07-31T02:45:23;1.07;;;1.07;;
53931;SDS011;39844;52.496;13.482;2023-07-31T02:47:49;1.30;;;1.20;;
53931;SDS011;39844;52.496;13.482;2023-07-31T02:50:14;1.43;;;1.33;;
53931;SDS011;39844;52.496;13.482;2023-07-31T02:52:39;1.33;;;1.33;;
53931;SDS011;39844;52.496;13.482;2023-07-31T02:55:05;1.50;;;1.40;;
53931;SDS011;39844;52.496;13.482;2023-07-31T02:57:31;1.27;;;1.27;;
53931;SDS011;39844;52.496;13.482;2023-07-31T02:59:56;1.57;;;1.40;;
53931;SDS011;39844;52.496;13.482;2023-07-31T03:02:21;1.53;;;1.43;;
53931;SDS011;39844;52.496;13.482;2023-07-31T03:04:46;3.30;;;1.73;;
53931;SDS011;39844;52.496;13.482;2023-07-31T03:07:12;1.47;;;1.47;;
53931;SDS011;39844;52.496;13.482;2023-07-31T03:09:37;2.03;;;1.43;;
53931;SDS011;39844;52.496;13.482;2023-07-31T03:12:02;1.67;;;1.57;;
53931;SDS011;39844;52.496;13.482;2023-07-31T03:14:31;1.90;;;1.50;;
53931;SDS011;39844;52.496;13.482;2023-07-31T03:16:56;1.53;;;1.43;;
53931;SDS011;39844;52.496;13.482;2023-07-31T03:19:22;1.63;;;1.40;;
53931;SDS011;39844;52.496;13.482;2023-07-31T03:21:47;2.17;;;1.60;;
53931;SDS011;39844;52.496;13.482;2023-07-31T03:24:12;1.60;;;1.60;;
53931;SDS011;39844;52.496;13.482;2023-07-31T03:26:37;1.70;;;1.60;;
53931;SDS011;39844;52.496;13.482;2023-07-31T03:29:03;1.60;;;1.50;;
53931;SDS011;39844;52.496;13.482;2023-07-31T03:31:28;2.60;;;1.73;;
53931;SDS011;39844;52.496;13.482;2023-07-31T03:33:54;2.53;;;1.83;;
53931;SDS011;39844;52.496;13.482;2023-07-31T03:36:19;2.20;;;1.80;;
53931;SDS011;39844;52.496;13.482;2023-07-31T03:38:45;2.30;;;2.20;;
53931;SDS011;39844;52.496;13.482;2023-07-31T03:41:11;2.43;;;2.00;;
53931;SDS011;39844;52.496;13.482;2023-07-31T03:43:36;2.07;;;1.97;;
53931;SDS011;39844;52.496;13.482;2023-07-31T03:46:02;2.03;;;1.80;;
53931;SDS011;39844;52.496;13.482;2023-07-31T03:48:27;3.80;;;1.70;;
53931;SDS011;39844;52.496;13.482;2023-07-31T03:50:53;1.97;;;1.87;;
53931;SDS011;39844;52.496;13.482;2023-07-31T03:53:18;2.17;;;2.00;;
53931;SDS011;39844;52.496;13.482;2023-07-31T03:55:43;2.60;;;2.30;;
53931;SDS011;39844;52.496;13.482;2023-07-31T03:58:09;2.20;;;2.00;;
53931;SDS011;39844;52.496;13.482;2023-07-31T04:00:34;2.90;;;1.80;;
53931;SDS011;39844;52.496;13.482;2023-07-31T04:02:59;3.03;;;2.03;;
53931;SDS011;39844;52.496;13.482;2023-07-31T04:05:25;2.10;;;1.87;;
53931;SDS011;39844;52.496;13.482;2023-07-31T04:07:50;1.70;;;1.60;;
53931;SDS011;39844;52.496;13.482;2023-07-31T04:10:15;2.43;;;1.77;;
53931;SDS011;39844;52.496;13.482;2023-07-31T04:12:41;1.43;;;1.33;;
53931;SDS011;39844;52.496;13.482;2023-07-31T04:15:06;1.73;;;1.63;;
53931;SDS011;39844;52.496;13.482;2023-07-31T04:17:32;3.20;;;1.90;;
53931;SDS011;39844;52.496;13.482;2023-07-31T04:19:57;1.63;;;1.53;;
53931;SDS011;39844;52.496;13.482;2023-07-31T04:22:22;1.67;;;1.57;;
53931;SDS011;39844;52.496;13.482;2023-07-31T04:24:48;2.47;;;1.90;;
53931;SDS011;39844;52.496;13.482;2023-07-31T04:27:13;1.60;;;1.60;;
53931;SDS011;39844;52.496;13.482;2023-07-31T04:29:38;1.60;;;1.50;;
53931;SDS011;39844;52.496;13.482;2023-07-31T04:32:03;1.67;;;1.57;;
53931;SDS011;39844;52.496;13.482;2023-07-31T04:34:29;2.13;;;1.60;;
53931;SDS011;39844;52.496;13.482;2023-07-31T04:36:54;1.60;;;1.50;;
53931;SDS011;39844;52.496;13.482;2023-07-31T04:39:19;1.93;;;1.63;;
53931;SDS011;39844;52.496;13.482;2023-07-31T04:41:45;1.73;;;1.63;;
53931;SDS011;39844;52.496;13.482;2023-07-31T04:44:10;2.20;;;1.73;;
53931;SDS011;39844;52.496;13.482;2023-07-31T04:46:35;1.53;;;1.43;;
53931;SDS011;39844;52.496;13.482;2023-07-31T04:49:01;1.90;;;1.80;;
53931;SDS011;39844;52.496;13.482;2023-07-31T04:51:26;1.90;;;1.80;;
53931;SDS011;39844;52.496;13.482;2023-07-31T04:53:51;1.53;;;1.53;;
53931;SDS011;39844;52.496;13.482;2023-07-31T04:56:16;1.60;;;1.50;;
53931;SDS011;39844;52.496;13.482;2023-07-31T04:58:42;1.87;;;1.77;;
53931;SDS011;39844;52.496;13.482;2023-07-31T05:01:09;1.67;;;1.57;;
53931;SDS011;39844;52.496;13.482;2023-07-31T05:03:35;1.30;;;1.30;;
53931;SDS011;39844;52.496;13.482;2023-07-31T05:06:00;1.37;;;1.30;;
53931;SDS011;39844;52.496;13.482;2023-07-31T05:08:25;2.57;;;1.40;;
53931;SDS011;39844;52.496;13.482;2023-07-31T05:10:51;1.83;;;1.70;;
53931;SDS011;39844;52.496;13.482;2023-07-31T05:13:16;1.90;;;1.80;;
53931;SDS011;39844;52.496;13.482;2023-07-31T05:15:42;1.80;;;1.70;;
53931;SDS011;39844;52.496;13.482;2023-07-31T05:18:07;1.90;;;1.80;;
53931;SDS011;39844;52.496;13.482;2023-07-31T05:20:32;1.60;;;1.50;;
53931;SDS011;39844;52.496;13.482;2023-07-31T05:22:58;1.80;;;1.40;;
53931;SDS011;39844;52.496;13.482;2023-07-31T05:25:23;1.57;;;1.50;;
53931;SDS011;39844;52.496;13.482;2023-07-31T05:27:48;2.07;;;1.70;;
53931;SDS011;39844;52.496;13.482;2023-07-31T05:30:14;1.73;;;1.60;;
53931;SDS011;39844;52.496;13.482;2023-07-31T05:32:39;4.47;;;1.47;;
53931;SDS011;39844;52.496;13.482;2023-07-31T05:35:04;2.60;;;1.37;;
53931;SDS011;39844;52.496;13.482;2023-07-31T05:37:30;1.87;;;1.50;;
53931;SDS011;39844;52.496;13.482;2023-07-31T05:39:55;1.30;;;1.30;;
53931;SDS011;39844;52.496;13.482;2023-07-31T05:42:20;1.20;;;1.20;;
53931;SDS011;39844;52.496;13.482;2023-07-31T05:44:46;3.90;;;1.60;;
53931;SDS011;39844;52.496;13.482;2023-07-31T05:47:11;1.40;;;1.30;;
53931;SDS011;39844;52.496;13.482;2023-07-31T05:49:36;1.50;;;1.40;;
53931;SDS011;39844;52.496;13.482;2023-07-31T05:52:02;1.87;;;1.60;;
53931;SDS011;39844;52.496;13.482;2023-07-31T05:54:27;4.80;;;1.33;;
53931;SDS011;39844;52.496;13.482;2023-07-31T05:56:52;1.77;;;1.23;;
53931;SDS011;39844;52.496;13.482;2023-07-31T05:59:18;2.17;;;1.47;;
53931;SDS011;39844;52.496;13.482;2023-07-31T06:01:43;1.27;;;1.27;;
53931;SDS011;39844;52.496;13.482;2023-07-31T06:04:08;1.50;;;1.40;;
53931;SDS011;39844;52.496;13.482;2023-07-31T06:06:34;2.13;;;1.40;;
53931;SDS011;39844;52.496;13.482;2023-07-31T06:08:59;1.40;;;1.30;;
53931;SDS011;39844;52.496;13.482;2023-07-31T06:11:25;2.53;;;1.30;;
53931;SDS011;39844;52.496;13.482;2023-07-31T06:13:50;1.77;;;1.50;;
53931;SDS011;39844;52.496;13.482;2023-07-31T06:16:15;1.20;;;1.20;;
53931;SDS011;39844;52.496;13.482;2023-07-31T06:18:41;1.73;;;1.10;;
53931;SDS011;39844;52.496;13.482;2023-07-31T06:21:07;1.50;;;1.40;;
53931;SDS011;39844;52.496;13.482;2023-07-31T06:23:32;1.70;;;1.50;;
53931;SDS011;39844;52.496;13.482;2023-07-31T06:25:58;2.50;;;1.40;;
53931;SDS011;39844;52.496;13.482;2023-07-31T06:28:27;3.23;;;1.20;;
53931;SDS011;39844;52.496;13.482;2023-07-31T06:30:53;4.07;;;1.33;;
53931;SDS011;39844;52.496;13.482;2023-07-31T06:33:18;1.40;;;1.30;;
53931;SDS011;39844;52.496;13.482;2023-07-31T06:35:43;1.77;;;1.67;;
53931;SDS011;39844;52.496;13.482;2023-07-31T06:38:09;1.17;;;1.17;;
53931;SDS011;39844;52.496;13.482;2023-07-31T06:40:34;4.60;;;1.80;;
53931;SDS011;39844;52.496;13.482;2023-07-31T06:42:59;3.13;;;1.50;;
53931;SDS011;39844;52.496;13.482;2023-07-31T06:45:24;1.97;;;1.40;;
53931;SDS011;39844;52.496;13.482;2023-07-31T06:47:52;1.40;;;1.27;;
53931;SDS011;39844;52.496;13.482;2023-07-31T06:50:18;2.10;;;1.67;;
53931;SDS011;39844;52.496;13.482;2023-07-31T06:52:43;1.73;;;1.63;;
53931;SDS011;39844;52.496;13.482;2023-07-31T06:55:18;2.00;;;1.50;;
53931;SDS011;39844;52.496;13.482;2023-07-31T06:57:45;1.50;;;1.40;;
53931;SDS011;39844;52.496;13.482;2023-07-31T07:00:11;2.20;;;1.50;;
53931;SDS011;39844;52.496;13.482;2023-07-31T07:02:37;1.30;;;1.30;;
53931;SDS011;39844;52.496;13.482;2023-07-31T07:05:02;2.13;;;1.43;;
53931;SDS011;39844;52.496;13.482;2023-07-31T07:07:27;1.60;;;1.43;;
53931;SDS011;39844;52.496;13.482;2023-07-31T07:09:53;1.80;;;1.30;;
53931;SDS011;39844;52.496;13.482;2023-07-31T07:12:18;3.27;;;1.87;;
53931;SDS011;39844;52.496;13.482;2023-07-31T07:14:43;2.60;;;1.60;;
53931;SDS011;39844;52.496;13.482;2023-07-31T07:17:09;1.77;;;1.50;;
53931;SDS011;39844;52.496;13.482;2023-07-31T07:19:34;1.40;;;1.30;;
53931;SDS011;39844;52.496;13.482;2023-07-31T07:21:59;1.50;;;1.37;;
53931;SDS011;39844;52.496;13.482;2023-07-31T07:24:25;1.60;;;1.40;;
53931;SDS011;39844;52.496;13.482;2023-07-31T07:26:50;3.47;;;1.47;;
53931;SDS011;39844;52.496;13.482;2023-07-31T07:29:15;1.60;;;1.50;;
53931;SDS011;39844;52.496;13.482;2023-07-31T07:31:40;1.93;;;1.40;;
53931;SDS011;39844;52.496;13.482;2023-07-31T07:34:06;1.30;;;1.20;;
53931;SDS011;39844;52.496;13.482;2023-07-31T07:36:31;2.40;;;1.67;;
53931;SDS011;39844;52.496;13.482;2023-07-31T07:38:56;1.33;;;1.30;;
53931;SDS011;39844;52.496;13.482;2023-07-31T07:41:22;1.43;;;1.33;;
53931;SDS011;39844;52.496;13.482;2023-07-31T07:43:47;3.60;;;1.40;;
53931;SDS011;39844;52.496;13.482;2023-07-31T07:46:12;1.20;;;1.20;;
53931;SDS011;39844;52.496;13.482;2023-07-31T07:48:37;2.83;;;1.67;;
53931;SDS011;39844;52.496;13.482;2023-07-31T07:51:03;1.37;;;1.27;;
53931;SDS011;39844;52.496;13.482;2023-07-31T07:53:28;1.53;;;1.23;;
53931;SDS011;39844;52.496;13.482;2023-07-31T07:55:53;2.20;;;1.33;;
53931;SDS011;39844;52.496;13.482;2023-07-31T07:58:18;1.80;;;1.53;;
53931;SDS011;39844;52.496;13.482;2023-07-31T08:00:50;1.70;;;1.60;;
53931;SDS011;39844;52.496;13.482;2023-07-31T08:03:16;4.43;;;1.40;;
53931;SDS011;39844;52.496;13.482;2023-07-31T08:05:41;1.63;;;1.53;;
53931;SDS011;39844;52.496;13.482;2023-07-31T08:08:07;1.77;;;1.67;;
53931;SDS011;39844;52.496;13.482;2023-07-31T08:10:32;2.97;;;1.40;;
53931;SDS011;39844;52.496;13.482;2023-07-31T08:12:58;1.83;;;1.40;;
53931;SDS011;39844;52.496;13.482;2023-07-31T08:15:23;1.43;;;1.30;;
53931;SDS011;39844;52.496;13.482;2023-07-31T08:17:50;1.53;;;1.30;;
53931;SDS011;39844;52.496;13.482;2023-07-31T08:20:16;1.50;;;1.40;;
53931;SDS011;39844;52.496;13.482;2023-07-31T08:22:41;1.40;;;1.30;;
53931;SDS011;39844;52.496;13.482;2023-07-31T08:25:06;1.23;;;1.13;;
53931;SDS011;39844;52.496;13.482;2023-07-31T08:27:32;1.53;;;1.30;;
53931;SDS011;39844;52.496;13.482;2023-07-31T08:29:57;2.53;;;1.03;;
53931;SDS011;39844;52.496;13.482;2023-07-31T08:32:23;1.00;;;1.00;;
53931;SDS011;39844;52.496;13.482;2023-07-31T08:34:48;2.60;;;1.30;;
53931;SDS011;39844;52.496;13.482;2023-07-31T08:37:13;1.20;;;1.20;;
53931;SDS011;39844;52.496;13.482;2023-07-31T08:39:38;1.10;;;1.10;;
53931;SDS011;39844;52.496;13.482;2023-07-31T08:42:09;1.40;;;1.30;;
53931;SDS011;39844;52.496;13.482;2023-07-31T08:44:34;1.50;;;1.20;;
53931;SDS011;39844;52.496;13.482;2023-07-31T08:47:00;1.90;;;1.20;;
53931;SDS011;39844;52.496;13.482;2023-07-31T08:49:26;3.50;;;1.23;;
53931;SDS011;39844;52.496;13.482;2023-07-31T08:51:52;1.03;;;1.03;;
53931;SDS011;39844;52.496;13.482;2023-07-31T08:54:18;1.27;;;1.23;;
53931;SDS011;39844;52.496;13.482;2023-07-31T08:56:45;1.97;;;1.47;;
53931;SDS011;39844;52.496;13.482;2023-07-31T08:59:11;1.57;;;1.47;;
53931;SDS011;39844;52.496;13.482;2023-07-31T09:01:39;1.70;;;1.40;;
53931;SDS011;39844;52.496;13.482;2023-07-31T09:04:09;1.60;;;1.50;;
53931;SDS011;39844;52.496;13.482;2023-07-31T09:06:35;1.40;;;1.03;;
53931;SDS011;39844;52.496;13.482;2023-07-31T09:09:01;3.70;;;1.30;;
53931;SDS011;39844;52.496;13.482;2023-07-31T09:11:27;1.60;;;1.40;;
53931;SDS011;39844;52.496;13.482;2023-07-31T09:13:52;1.30;;;1.20;;
53931;SDS011;39844;52.496;13.482;2023-07-31T09:16:27;1.73;;;1.37;;
53931;SDS011;39844;52.496;13.482;2023-07-31T09:18:56;3.33;;;1.40;;
53931;SDS011;39844;52.496;13.482;2023-07-31T09:21:22;1.30;;;1.20;;
53931;SDS011;39844;52.496;13.482;2023-07-31T09:23:49;1.20;;;1.13;;
53931;SDS011;39844;52.496;13.482;2023-07-31T09:28:55;1.20;;;1.10;;
53931;SDS011;39844;52.496;13.482;2023-07-31T09:31:40;2.13;;;1.10;;
53931;SDS011;39844;52.496;13.482;2023-07-31T09:34:06;2.63;;;1.10;;
53931;SDS011;39844;52.496;13.482;2023-07-31T09:36:32;1.23;;;1.10;;
53931;SDS011;39844;52.496;13.482;2023-07-31T09:39:03;0.80;;;0.80;;
53931;SDS011;39844;52.496;13.482;2023-07-31T09:41:29;0.90;;;0.90;;
53931;SDS011;39844;52.496;13.482;2023-07-31T09:44:01;1.13;;;1.00;;
53931;SDS011;39844;52.496;13.482;2023-07-31T09:46:26;0.80;;;0.80;;
53931;SDS011;39844;52.496;13.482;2023-07-31T09:48:52;1.10;;;1.00;;
53931;SDS011;39844;52.496;13.482;2023-07-31T09:51:21;1.30;;;1.17;;
53931;SDS011;39844;52.496;13.482;2023-07-31T09:53:51;0.70;;;0.70;;
53931;SDS011;39844;52.496;13.482;2023-07-31T09:56:16;0.80;;;0.80;;
53931;SDS011;39844;52.496;13.482;2023-07-31T09:58:44;0.80;;;0.80;;
53931;SDS011;39844;52.496;13.482;2023-07-31T10:01:10;0.77;;;0.77;;
53931;SDS011;39844;52.496;13.482;2023-07-31T10:03:35;0.73;;;0.73;;
53931;SDS011;39844;52.496;13.482;2023-07-31T10:06:03;0.80;;;0.80;;
53931;SDS011;39844;52.496;13.482;2023-07-31T10:08:30;1.03;;;1.03;;
53931;SDS011;39844;52.496;13.482;2023-07-31T10:10:59;0.73;;;0.73;;
53931;SDS011;39844;52.496;13.482;2023-07-31T10:13:27;1.07;;;1.07;;
53931;SDS011;39844;52.496;13.482;2023-07-31T10:15:54;1.30;;;1.20;;
53931;SDS011;39844;52.496;13.482;2023-07-31T10:18:23;1.80;;;1.50;;
53931;SDS011;39844;52.496;13.482;2023-07-31T10:20:49;1.37;;;1.10;;
53931;SDS011;39844;52.496;13.482;2023-07-31T10:23:15;2.60;;;1.50;;
53931;SDS011;39844;52.496;13.482;2023-07-31T10:25:41;1.20;;;1.20;;
53931;SDS011;39844;52.496;13.482;2023-07-31T10:28:07;1.20;;;1.13;;
53931;SDS011;39844;52.496;13.482;2023-07-31T10:30:34;1.50;;;1.40;;
53931;SDS011;39844;52.496;13.482;2023-07-31T10:33:01;2.70;;;1.67;;
53931;SDS011;39844;52.496;13.482;2023-07-31T10:35:27;1.60;;;1.50;;
53931;SDS011;39844;52.496;13.482;2023-07-31T10:37:53;1.70;;;1.53;;
53931;SDS011;39844;52.496;13.482;2023-07-31T10:40:19;1.60;;;1.50;;
53931;SDS011;39844;52.496;13.482;2023-07-31T10:42:49;1.50;;;1.40;;
53931;SDS011;39844;52.496;13.482;2023-07-31T10:48:28;1.83;;;1.73;;
53931;SDS011;39844;52.496;13.482;2023-07-31T10:50:50;1.83;;;1.73;;
53931;SDS011;39844;52.496;13.482;2023-07-31T10:55:57;1.97;;;1.83;;
53931;SDS011;39844;52.496;13.482;2023-07-31T10:58:24;2.00;;;1.80;;
53931;SDS011;39844;52.496;13.482;2023-07-31T11:00:49;2.87;;;1.70;;
53931;SDS011;39844;52.496;13.482;2023-07-31T11:03:19;3.37;;;2.13;;
53931;SDS011;39844;52.496;13.482;2023-07-31T11:08:21;2.60;;;1.80;;
53931;SDS011;39844;52.496;13.482;2023-07-31T11:10:49;1.80;;;1.60;;
53931;SDS011;39844;52.496;13.482;2023-07-31T11:13:16;1.70;;;1.50;;
53931;SDS011;39844;52.496;13.482;2023-07-31T11:15:41;1.95;;;1.75;;
53931;SDS011;39844;52.496;13.482;2023-07-31T11:18:07;2.58;;;1.98;;
53931;SDS011;39844;52.496;13.482;2023-07-31T11:20:32;3.53;;;1.85;;
53931;SDS011;39844;52.496;13.482;2023-07-31T11:35:12;3.97;;;1.67;;
53931;SDS011;39844;52.496;13.482;2023-07-31T11:37:43;2.40;;;2.00;;
53931;SDS011;39844;52.496;13.482;2023-07-31T11:40:09;2.42;;;1.52;;
53931;SDS011;39844;52.496;13.482;2023-07-31T11:42:35;4.05;;;1.90;;
53931;SDS011;39844;52.496;13.482;2023-07-31T11:45:04;1.83;;;1.73;;
53931;SDS011;39844;52.496;13.482;2023-07-31T11:47:33;1.73;;;1.63;;
53931;SDS011;39844;52.496;13.482;2023-07-31T11:50:00;2.20;;;1.70;;
53931;SDS011;39844;52.496;13.482;2023-07-31T11:52:27;3.83;;;1.50;;
53931;SDS011;39844;52.496;13.482;2023-07-31T11:54:54;5.45;;;1.70;;
53931;SDS011;39844;52.496;13.482;2023-07-31T11:57:23;2.17;;;1.77;;
53931;SDS011;39844;52.496;13.482;2023-07-31T11:59:49;2.22;;;1.80;;
53931;SDS011;39844;52.496;13.482;2023-07-31T12:02:16;4.82;;;1.70;;
53931;SDS011;39844;52.496;13.482;2023-07-31T12:04:43;4.20;;;1.80;;
53931;SDS011;39844;52.496;13.482;2023-07-31T12:07:08;1.98;;;1.77;;
53931;SDS011;39844;52.496;13.482;2023-07-31T12:09:33;4.15;;;1.80;;
53931;SDS011;39844;52.496;13.482;2023-07-31T12:11:59;2.10;;;1.90;;
53931;SDS011;39844;52.496;13.482;2023-07-31T12:14:25;2.60;;;1.70;;
53931;SDS011;39844;52.496;13.482;2023-07-31T12:16:54;2.00;;;1.90;;
53931;SDS011;39844;52.496;13.482;2023-07-31T12:19:40;1.33;;;1.23;;
53931;SDS011;39844;52.496;13.482;2023-07-31T12:22:14;1.70;;;1.60;;
53931;SDS011;39844;52.496;13.482;2023-07-31T12:24:41;2.25;;;1.83;;
53931;SDS011;39844;52.496;13.482;2023-07-31T12:27:08;1.73;;;1.63;;
53931;SDS011;39844;52.496;13.482;2023-07-31T12:29:35;3.47;;;1.75;;
53931;SDS011;39844;52.496;13.482;2023-07-31T12:32:00;1.83;;;1.73;;
53931;SDS011;39844;52.496;13.482;2023-07-31T12:34:25;1.80;;;1.63;;
53931;SDS011;39844;52.496;13.482;2023-07-31T12:36:52;1.38;;;1.38;;
53931;SDS011;39844;52.496;13.482;2023-07-31T12:39:18;2.08;;;1.73;;
53931;SDS011;39844;52.496;13.482;2023-07-31T12:41:43;2.58;;;1.70;;
53931;SDS011;39844;52.496;13.482;2023-07-31T12:44:09;2.22;;;1.58;;
53931;SDS011;39844;52.496;13.482;2023-07-31T12:46:34;1.65;;;1.50;;
53931;SDS011;39844;52.496;13.482;2023-07-31T12:48:59;2.67;;;1.50;;
53931;SDS011;39844;52.496;13.482;2023-07-31T12:51:25;1.60;;;1.50;;
53931;SDS011;39844;52.496;13.482;2023-07-31T12:53:50;3.13;;;1.70;;
53931;SDS011;39844;52.496;13.482;2023-07-31T12:56:15;1.25;;;1.13;;
53931;SDS011;39844;52.496;13.482;2023-07-31T12:58:40;1.80;;;1.70;;
53931;SDS011;39844;52.496;13.482;2023-07-31T13:01:06;2.65;;;1.35;;
53931;SDS011;39844;52.496;13.482;2023-07-31T13:03:31;2.45;;;1.85;;
53931;SDS011;39844;52.496;13.482;2023-07-31T13:05:57;1.63;;;1.50;;
53931;SDS011;39844;52.496;13.482;2023-07-31T13:08:24;1.13;;;1.10;;
53931;SDS011;39844;52.496;13.482;2023-07-31T13:10:49;2.53;;;1.40;;
53931;SDS011;39844;52.496;13.482;2023-07-31T13:13:15;1.17;;;1.17;;
53931;SDS011;39844;52.496;13.482;2023-07-31T13:15:40;5.55;;;1.48;;
53931;SDS011;39844;52.496;13.482;2023-07-31T13:18:06;1.40;;;1.33;;
53931;SDS011;39844;52.496;13.482;2023-07-31T13:20:31;1.83;;;1.65;;
53931;SDS011;39844;52.496;13.482;2023-07-31T13:22:56;1.10;;;1.10;;
53931;SDS011;39844;52.496;13.482;2023-07-31T13:25:22;3.90;;;1.42;;
53931;SDS011;39844;52.496;13.482;2023-07-31T13:27:47;1.70;;;1.60;;
53931;SDS011;39844;52.496;13.482;2023-07-31T13:30:12;1.65;;;1.48;;
53931;SDS011;39844;52.496;13.482;2023-07-31T13:32:38;1.55;;;1.45;;
53931;SDS011;39844;52.496;13.482;2023-07-31T13:35:03;1.38;;;1.35;;
53931;SDS011;39844;52.496;13.482;2023-07-31T13:37:32;2.00;;;1.77;;
53931;SDS011;39844;52.496;13.482;2023-07-31T13:39:57;1.98;;;1.63;;
53931;SDS011;39844;52.496;13.482;2023-07-31T13:42:22;4.28;;;1.70;;
53931;SDS011;39844;52.496;13.482;2023-07-31T13:44:47;2.00;;;1.40;;
53931;SDS011;39844;52.496;13.482;2023-07-31T13:47:13;1.60;;;1.50;;
53931;SDS011;39844;52.496;13.482;2023-07-31T13:49:38;3.63;;;1.80;;
53931;SDS011;39844;52.496;13.482;2023-07-31T13:52:03;1.55;;;1.52;;
53931;SDS011;39844;52.496;13.482;2023-07-31T13:54:29;3.33;;;1.80;;
53931;SDS011;39844;52.496;13.482;2023-07-31T13:56:54;2.35;;;1.63;;
53931;SDS011;39844;52.496;13.482;2023-07-31T13:59:20;1.67;;;1.58;;
53931;SDS011;39844;52.496;13.482;2023-07-31T14:01:45;2.38;;;1.90;;
53931;SDS011;39844;52.496;13.482;2023-07-31T14:04:11;2.25;;;1.75;;
53931;SDS011;39844;52.496;13.482;2023-07-31T14:06:36;2.08;;;1.85;;
53931;SDS011;39844;52.496;13.482;2023-07-31T14:09:02;2.00;;;1.90;;
53931;SDS011;39844;52.496;13.482;2023-07-31T14:11:27;2.10;;;1.90;;
53931;SDS011;39844;52.496;13.482;2023-07-31T14:13:52;2.08;;;1.67;;
53931;SDS011;39844;52.496;13.482;2023-07-31T14:16:18;1.45;;;1.45;;
53931;SDS011;39844;52.496;13.482;2023-07-31T14:18:43;1.63;;;1.52;;
53931;SDS011;39844;52.496;13.482;2023-07-31T14:21:08;2.67;;;2.10;;
53931;SDS011;39844;52.496;13.482;2023-07-31T14:23:34;1.75;;;1.65;;
53931;SDS011;39844;52.496;13.482;2023-07-31T14:25:59;1.58;;;1.48;;
53931;SDS011;39844;52.496;13.482;2023-07-31T14:28:24;1.95;;;1.33;;
53931;SDS011;39844;52.496;13.482;2023-07-31T14:30:50;1.85;;;1.70;;
53931;SDS011;39844;52.496;13.482;2023-07-31T14:33:15;3.22;;;1.90;;
53931;SDS011;39844;52.496;13.482;2023-07-31T14:35:40;1.70;;;1.60;;
53931;SDS011;39844;52.496;13.482;2023-07-31T14:38:06;3.00;;;1.83;;
53931;SDS011;39844;52.496;13.482;2023-07-31T14:42:58;2.05;;;1.67;;
53931;SDS011;39844;52.496;13.482;2023-07-31T14:45:24;1.67;;;1.48;;
53931;SDS011;39844;52.496;13.482;2023-07-31T14:47:49;2.08;;;1.83;;
53931;SDS011;39844;52.496;13.482;2023-07-31T14:50:15;2.42;;;2.05;;
53931;SDS011;39844;52.496;13.482;2023-07-31T14:52:40;2.53;;;1.80;;
53931;SDS011;39844;52.496;13.482;2023-07-31T14:55:06;2.60;;;2.10;;
53931;SDS011;39844;52.496;13.482;2023-07-31T14:57:31;3.42;;;1.85;;
53931;SDS011;39844;52.496;13.482;2023-07-31T14:59:58;1.70;;;1.60;;
53931;SDS011;39844;52.496;13.482;2023-07-31T15:02:23;1.88;;;1.65;;
53931;SDS011;39844;52.496;13.482;2023-07-31T15:04:50;2.15;;;1.80;;